createdAt,value
2022-09-23T00:00:11.062Z,0.00
2022-09-23T00:01:11.252Z,0.00
2022-09-23T00:02:11.124Z,0.00
2022-09-23T00:03:11.057Z,0.00
2022-09-23T00:04:11.059Z,0.00
2022-09-23T00:05:11.063Z,0.00
2022-09-23T00:06:14.058Z,0.00
2022-09-23T00:07:11.062Z,0.00
2022-09-23T00:08:11.068Z,0.00
2022-09-23T00:09:11.062Z,0.00
2022-09-23T00:10:11.058Z,0.00
2022-09-23T00:11:15.066Z,0.00
2022-09-23T00:12:11.063Z,0.00
2022-09-23T00:13:11.060Z,0.00
2022-09-23T00:14:11.062Z,0.00
2022-09-23T00:15:11.070Z,0.00
2022-09-23T00:16:16.182Z,0.00
2022-09-23T00:17:11.135Z,0.00
2022-09-23T00:18:11.071Z,0.00
2022-09-23T00:19:11.061Z,0.00
2022-09-23T00:20:11.067Z,0.00
2022-09-23T00:21:11.074Z,0.00
2022-09-23T00:22:11.059Z,0.00
2022-09-23T00:23:11.054Z,0.00
2022-09-23T00:24:11.057Z,0.00
2022-09-23T00:25:11.059Z,0.00
2022-09-23T00:26:11.055Z,0.00
2022-09-23T00:27:11.059Z,0.00
2022-09-23T00:28:11.065Z,0.00
2022-09-23T00:29:11.059Z,0.00
2022-09-23T00:30:11.061Z,0.00
2022-09-23T00:31:11.156Z,0.00
2022-09-23T00:32:11.060Z,0.00
2022-09-23T00:33:11.056Z,0.00
2022-09-23T00:34:12.060Z,0.00
2022-09-23T00:35:11.061Z,0.00
2022-09-23T00:36:11.074Z,0.00
2022-09-23T00:37:11.059Z,0.00
2022-09-23T00:38:11.061Z,0.00
2022-09-23T00:39:11.058Z,0.00
2022-09-23T00:40:11.072Z,0.00
2022-09-23T00:41:11.062Z,0.00
2022-09-23T00:42:18.062Z,0.00
2022-09-23T00:43:13.059Z,0.00
2022-09-23T00:44:19.073Z,0.00
2022-09-23T00:45:12.061Z,0.00
2022-09-23T00:46:13.114Z,0.00
2022-09-23T00:47:19.060Z,0.00
2022-09-23T00:48:19.068Z,0.00
2022-09-23T00:49:19.061Z,0.00
2022-09-23T00:50:21.059Z,0.00
2022-09-23T00:51:12.086Z,0.00
2022-09-23T00:52:14.063Z,0.00
2022-09-23T00:53:14.061Z,0.00
2022-09-23T00:54:11.061Z,0.00
2022-09-23T00:55:17.080Z,0.00
2022-09-23T00:56:12.070Z,0.00
2022-09-23T00:57:11.063Z,0.00
2022-09-23T00:58:14.065Z,0.00
2022-09-23T00:59:11.062Z,0.00
2022-09-23T01:00:11.064Z,0.00
2022-09-23T01:01:11.132Z,0.00
2022-09-23T01:02:11.155Z,0.00
2022-09-23T01:03:11.071Z,0.00
2022-09-23T01:04:11.061Z,0.00
2022-09-23T01:05:11.066Z,0.00
2022-09-23T01:06:11.069Z,0.00
2022-09-23T01:07:11.065Z,0.00
2022-09-23T01:08:11.060Z,0.00
2022-09-23T01:09:11.066Z,0.00
2022-09-23T01:10:11.064Z,0.00
2022-09-23T01:11:23.078Z,0.00
2022-09-23T01:12:19.066Z,0.00
2022-09-23T01:13:19.065Z,0.00
2022-09-23T01:14:19.072Z,0.00
2022-09-23T01:15:19.063Z,0.00
2022-09-23T01:16:16.151Z,0.00
2022-09-23T01:17:19.072Z,0.00
2022-09-23T01:18:19.066Z,0.00
2022-09-23T01:19:21.067Z,0.00
2022-09-23T01:20:19.064Z,0.00
2022-09-23T01:21:21.056Z,0.00
2022-09-23T01:22:19.065Z,0.00
2022-09-23T01:23:19.064Z,0.00
2022-09-23T01:24:19.069Z,0.00
2022-09-23T01:25:19.061Z,0.00
2022-09-23T01:26:19.059Z,0.00
2022-09-23T01:27:19.060Z,0.00
2022-09-23T01:28:19.060Z,0.00
2022-09-23T01:29:19.069Z,0.00
2022-09-23T01:30:18.063Z,0.00
2022-09-23T01:31:18.112Z,0.00
2022-09-23T01:32:21.058Z,0.00
2022-09-23T01:33:19.063Z,0.00
2022-09-23T01:34:21.064Z,0.00
2022-09-23T01:35:19.074Z,0.00
2022-09-23T01:36:21.063Z,0.00
2022-09-23T01:37:19.060Z,0.00
2022-09-23T01:38:19.063Z,0.00
2022-09-23T01:39:19.066Z,0.00
2022-09-23T01:40:23.097Z,0.00
2022-09-23T01:41:21.069Z,0.00
2022-09-23T01:42:21.065Z,0.00
2022-09-23T01:43:21.070Z,0.00
2022-09-23T01:44:13.061Z,0.00
2022-09-23T01:45:16.068Z,0.00
2022-09-23T01:46:19.065Z,0.00
2022-09-23T01:47:17.065Z,0.00
2022-09-23T01:48:22.166Z,0.00
2022-09-23T01:49:17.059Z,0.00
2022-09-23T01:50:26.063Z,0.00
2022-09-23T01:51:21.066Z,0.00
2022-09-23T01:52:18.072Z,0.00
2022-09-23T01:53:19.064Z,0.00
2022-09-23T01:54:15.063Z,0.00
2022-09-23T01:55:18.061Z,0.00
2022-09-23T01:56:17.064Z,0.00
2022-09-23T01:57:19.076Z,0.00
2022-09-23T01:58:17.068Z,0.00
2022-09-23T01:59:21.064Z,0.00
2022-09-23T02:00:16.066Z,0.00
2022-09-23T02:01:14.114Z,0.00
2022-09-23T02:02:17.114Z,0.00
2022-09-23T02:03:18.066Z,0.00
2022-09-23T02:04:21.065Z,0.00
2022-09-23T02:05:17.166Z,0.00
2022-09-23T02:06:21.070Z,0.00
2022-09-23T02:07:18.074Z,0.00
2022-09-23T02:08:19.067Z,0.00
2022-09-23T02:09:14.068Z,0.00
2022-09-23T02:10:20.069Z,0.00
2022-09-23T02:11:12.067Z,0.00
2022-09-23T02:12:13.075Z,0.00
2022-09-23T02:13:16.075Z,0.00
2022-09-23T02:14:20.064Z,0.00
2022-09-23T02:15:16.067Z,0.00
2022-09-23T02:16:19.099Z,0.00
2022-09-23T02:17:12.077Z,0.00
2022-09-23T02:18:15.071Z,0.00
2022-09-23T02:19:19.069Z,0.00
2022-09-23T02:20:12.069Z,0.00
2022-09-23T02:21:11.059Z,0.00
2022-09-23T02:22:20.054Z,0.00
2022-09-23T02:23:19.060Z,0.00
2022-09-23T02:24:18.065Z,0.00
2022-09-23T02:25:11.065Z,0.00
2022-09-23T02:26:16.057Z,0.00
2022-09-23T02:27:19.059Z,0.00
2022-09-23T02:28:21.062Z,0.00
2022-09-23T02:29:20.068Z,0.00
2022-09-23T02:30:17.120Z,0.00
2022-09-23T02:31:19.061Z,0.00
2022-09-23T02:32:19.059Z,0.00
2022-09-23T02:33:15.061Z,0.00
2022-09-23T02:34:21.060Z,0.00
2022-09-23T02:35:19.058Z,0.00
2022-09-23T02:36:21.056Z,0.00
2022-09-23T02:37:19.061Z,0.00
2022-09-23T02:38:21.068Z,0.00
2022-09-23T02:39:12.067Z,0.00
2022-09-23T02:40:21.111Z,0.00
2022-09-23T02:41:17.060Z,0.00
2022-09-23T02:42:18.062Z,0.00
2022-09-23T02:43:19.068Z,0.00
2022-09-23T02:44:16.070Z,0.00
2022-09-23T02:45:11.061Z,0.00
2022-09-23T02:46:11.120Z,0.00
2022-09-23T02:47:11.068Z,0.00
2022-09-23T02:48:16.060Z,0.00
2022-09-23T02:49:18.058Z,0.00
2022-09-23T02:50:11.063Z,0.00
2022-09-23T02:51:11.069Z,0.00
2022-09-23T02:52:11.060Z,0.00
2022-09-23T02:53:11.068Z,0.00
2022-09-23T02:54:12.070Z,0.00
2022-09-23T02:55:11.064Z,0.00
2022-09-23T02:56:20.065Z,0.00
2022-09-23T02:57:11.062Z,0.00
2022-09-23T02:58:12.064Z,0.00
2022-09-23T02:59:11.061Z,0.00
2022-09-23T03:00:11.063Z,0.00
2022-09-23T03:01:21.114Z,0.00
2022-09-23T03:02:19.088Z,0.00
2022-09-23T03:03:19.063Z,0.00
2022-09-23T03:04:21.066Z,0.00
2022-09-23T03:05:19.067Z,0.00
2022-09-23T03:06:19.073Z,0.00
2022-09-23T03:07:21.067Z,0.00
2022-09-23T03:08:19.067Z,0.00
2022-09-23T03:09:19.067Z,0.00
2022-09-23T03:10:19.073Z,0.00
2022-09-23T03:11:11.072Z,0.00
2022-09-23T03:12:21.063Z,0.00
2022-09-23T03:13:20.087Z,0.00
2022-09-23T03:14:21.065Z,0.00
2022-09-23T03:15:19.072Z,0.00
2022-09-23T03:16:19.137Z,0.00
2022-09-23T03:17:18.068Z,0.00
2022-09-23T03:18:21.064Z,0.00
2022-09-23T03:19:23.067Z,0.00
2022-09-23T03:20:19.066Z,0.00
2022-09-23T03:21:19.069Z,0.00
2022-09-23T03:22:21.064Z,0.00
2022-09-23T03:23:13.062Z,0.00
2022-09-23T03:24:11.061Z,0.00
2022-09-23T03:25:18.062Z,0.00
2022-09-23T03:26:15.069Z,0.00
2022-09-23T03:27:16.079Z,0.00
2022-09-23T03:28:11.061Z,0.00
2022-09-23T03:29:11.063Z,0.00
2022-09-23T03:30:11.069Z,0.00
2022-09-23T03:31:11.067Z,0.00
2022-09-23T03:32:12.065Z,0.00
2022-09-23T03:33:12.069Z,0.00
2022-09-23T03:34:17.074Z,0.00
2022-09-23T03:35:11.062Z,0.00
2022-09-23T03:36:17.066Z,0.00
2022-09-23T03:37:17.073Z,0.00
2022-09-23T03:38:16.064Z,0.00
2022-09-23T03:39:12.062Z,0.00
2022-09-23T03:40:19.102Z,0.00
2022-09-23T03:41:12.072Z,0.00
2022-09-23T03:42:17.121Z,0.00
2022-09-23T03:43:11.065Z,0.00
2022-09-23T03:44:11.065Z,0.00
2022-09-23T03:45:14.066Z,0.00
2022-09-23T03:46:11.119Z,0.00
2022-09-23T03:47:11.066Z,0.00
2022-09-23T03:48:11.072Z,0.00
2022-09-23T03:49:16.065Z,0.00
2022-09-23T03:50:11.065Z,0.00
2022-09-23T03:51:21.069Z,0.00
2022-09-23T03:52:11.075Z,0.00
2022-09-23T03:53:11.065Z,0.00
2022-09-23T03:54:11.063Z,0.00
2022-09-23T03:55:11.063Z,0.00
2022-09-23T03:56:11.067Z,0.00
2022-09-23T03:57:11.063Z,0.00
2022-09-23T03:58:11.065Z,0.00
2022-09-23T03:59:11.072Z,0.00
2022-09-23T04:00:11.065Z,0.00
2022-09-23T04:01:11.261Z,0.00
2022-09-23T04:02:11.136Z,0.00
2022-09-23T04:03:11.852Z,0.00
2022-09-23T04:04:11.066Z,0.00
2022-09-23T04:05:11.068Z,0.00
2022-09-23T04:06:11.068Z,0.00
2022-09-23T04:07:11.065Z,0.00
2022-09-23T04:08:11.067Z,0.00
2022-09-23T04:09:11.074Z,0.00
2022-09-23T04:10:11.065Z,0.00
2022-09-23T04:11:11.068Z,0.00
2022-09-23T04:12:13.069Z,0.00
2022-09-23T04:13:11.072Z,0.00
2022-09-23T04:14:11.066Z,0.00
2022-09-23T04:15:11.070Z,0.00
2022-09-23T04:16:11.102Z,0.00
2022-09-23T04:17:11.067Z,0.00
2022-09-23T04:18:11.071Z,0.00
2022-09-23T04:19:11.873Z,0.00
2022-09-23T04:20:11.069Z,0.00
2022-09-23T04:21:11.063Z,0.00
2022-09-23T04:22:11.063Z,0.00
2022-09-23T04:23:11.069Z,0.00
2022-09-23T04:24:11.064Z,0.00
2022-09-23T04:25:11.069Z,0.00
2022-09-23T04:26:11.072Z,0.00
2022-09-23T04:27:11.068Z,0.00
2022-09-23T04:28:11.063Z,0.00
2022-09-23T04:29:11.068Z,0.00
2022-09-23T04:30:11.065Z,0.00
2022-09-23T04:31:11.136Z,0.00
2022-09-23T04:32:11.066Z,0.00
2022-09-23T04:33:11.067Z,0.00
2022-09-23T04:34:11.063Z,0.00
2022-09-23T04:35:11.077Z,0.00
2022-09-23T04:36:11.073Z,0.00
2022-09-23T04:37:11.067Z,0.00
2022-09-23T04:38:11.070Z,0.00
2022-09-23T04:39:11.069Z,0.00
2022-09-23T04:40:11.097Z,0.00
2022-09-23T04:41:11.068Z,0.00
2022-09-23T04:42:11.066Z,0.00
2022-09-23T04:43:13.515Z,0.00
2022-09-23T04:44:11.065Z,0.00
2022-09-23T04:45:11.068Z,0.00
2022-09-23T04:46:11.076Z,0.00
2022-09-23T04:47:11.065Z,0.00
2022-09-23T04:48:11.070Z,0.00
2022-09-23T04:49:11.113Z,0.00
2022-09-23T04:50:11.069Z,0.00
2022-09-23T04:51:14.071Z,0.00
2022-09-23T04:52:11.067Z,0.00
2022-09-23T04:53:11.071Z,0.00
2022-09-23T04:54:11.068Z,0.00
2022-09-23T04:55:11.416Z,0.00
2022-09-23T04:56:14.077Z,0.00
2022-09-23T04:57:11.073Z,0.00
2022-09-23T04:58:11.065Z,0.00
2022-09-23T04:59:11.199Z,0.00
2022-09-23T05:00:11.070Z,0.00
2022-09-23T05:01:15.144Z,0.00
2022-09-23T05:02:11.109Z,0.00
2022-09-23T05:03:11.077Z,0.00
2022-09-23T05:04:11.068Z,0.00
2022-09-23T05:05:11.069Z,0.00
2022-09-23T05:06:11.071Z,0.00
2022-09-23T05:07:11.067Z,0.00
2022-09-23T05:08:11.070Z,0.00
2022-09-23T05:09:13.072Z,0.00
2022-09-23T05:10:11.068Z,0.00
2022-09-23T05:11:11.072Z,0.00
2022-09-23T05:12:11.079Z,0.00
2022-09-23T05:13:11.073Z,0.00
2022-09-23T05:14:11.075Z,0.00
2022-09-23T05:15:11.072Z,0.00
2022-09-23T05:16:11.140Z,0.00
2022-09-23T05:17:11.069Z,0.00
2022-09-23T05:18:11.074Z,0.00
2022-09-23T05:19:11.127Z,0.00
2022-09-23T05:20:11.074Z,0.00
2022-09-23T05:21:11.054Z,0.00
2022-09-23T05:22:11.061Z,0.00
2022-09-23T05:23:11.059Z,0.00
2022-09-23T05:24:11.059Z,0.00
2022-09-23T05:25:11.057Z,0.00
2022-09-23T05:26:13.061Z,0.00
2022-09-23T05:27:13.063Z,0.00
2022-09-23T05:28:11.059Z,0.00
2022-09-23T05:29:11.068Z,0.00
2022-09-23T05:30:11.058Z,0.00
2022-09-23T05:31:19.569Z,0.00
2022-09-23T05:32:13.850Z,0.00
2022-09-23T05:33:11.065Z,0.00
2022-09-23T05:34:11.058Z,0.00
2022-09-23T05:35:11.061Z,0.00
2022-09-23T05:36:11.068Z,0.00
2022-09-23T05:37:11.059Z,0.00
2022-09-23T05:38:11.057Z,0.00
2022-09-23T05:39:11.164Z,0.00
2022-09-23T05:40:11.112Z,0.00
2022-09-23T05:41:13.056Z,0.00
2022-09-23T05:42:11.060Z,0.00
2022-09-23T05:43:11.062Z,0.00
2022-09-23T05:44:11.060Z,0.00
2022-09-23T05:45:11.065Z,0.00
2022-09-23T05:46:12.152Z,0.00
2022-09-23T05:47:11.061Z,0.00
2022-09-23T05:48:11.059Z,0.00
2022-09-23T05:49:11.168Z,0.00
2022-09-23T05:50:11.062Z,0.00
2022-09-23T05:51:16.062Z,0.00
2022-09-23T05:52:11.062Z,0.00
2022-09-23T05:53:11.065Z,0.00
2022-09-23T05:54:11.060Z,0.00
2022-09-23T05:55:11.063Z,0.00
2022-09-23T05:56:11.107Z,0.00
2022-09-23T05:57:11.065Z,0.00
2022-09-23T05:58:11.059Z,0.00
2022-09-23T05:59:11.066Z,0.00
2022-09-23T06:00:11.065Z,0.00
2022-09-23T06:01:15.060Z,0.00
2022-09-23T06:02:11.155Z,0.00
2022-09-23T06:03:15.214Z,0.00
2022-09-23T06:04:13.068Z,0.00
2022-09-23T06:05:11.061Z,0.00
2022-09-23T06:06:13.070Z,0.00
2022-09-23T06:07:11.070Z,0.00
2022-09-23T06:08:11.062Z,0.00
2022-09-23T06:09:12.064Z,0.00
2022-09-23T06:10:11.074Z,0.00
2022-09-23T06:11:12.068Z,0.00
2022-09-23T06:12:11.066Z,0.00
2022-09-23T06:13:11.067Z,0.00
2022-09-23T06:14:13.065Z,0.00
2022-09-23T06:15:11.064Z,0.00
2022-09-23T06:16:14.154Z,0.00
2022-09-23T06:17:11.073Z,0.00
2022-09-23T06:18:11.063Z,0.00
2022-09-23T06:19:11.069Z,0.00
2022-09-23T06:20:11.073Z,0.01
2022-09-23T06:21:11.061Z,0.01
2022-09-23T06:22:11.061Z,0.01
2022-09-23T06:23:12.062Z,0.00
2022-09-23T06:24:15.792Z,0.01
2022-09-23T06:25:13.084Z,0.01
2022-09-23T06:26:11.061Z,0.01
2022-09-23T06:27:11.068Z,0.02
2022-09-23T06:28:15.059Z,0.02
2022-09-23T06:29:13.062Z,0.02
2022-09-23T06:30:11.065Z,0.02
2022-09-23T06:31:16.095Z,0.02
2022-09-23T06:32:11.061Z,0.02
2022-09-23T06:33:11.063Z,0.03
2022-09-23T06:34:13.651Z,0.03
2022-09-23T06:35:24.226Z,0.03
2022-09-23T06:36:17.685Z,0.04
2022-09-23T06:37:19.063Z,0.04
2022-09-23T06:38:13.073Z,0.04
2022-09-23T06:39:11.063Z,0.04
2022-09-23T06:40:11.110Z,0.04
2022-09-23T06:41:11.066Z,0.04
2022-09-23T06:42:11.065Z,0.04
2022-09-23T06:43:11.060Z,0.04
2022-09-23T06:44:11.105Z,0.04
2022-09-23T06:45:11.063Z,0.03
2022-09-23T06:46:15.115Z,0.03
2022-09-23T06:47:11.064Z,0.03
2022-09-23T06:48:12.075Z,0.03
2022-09-23T06:49:11.064Z,0.04
2022-09-23T06:50:11.060Z,0.05
2022-09-23T06:51:12.064Z,0.04
2022-09-23T06:52:11.064Z,0.03
2022-09-23T06:53:11.059Z,0.03
2022-09-23T06:54:11.230Z,0.02
2022-09-23T06:55:11.065Z,0.02
2022-09-23T06:56:11.064Z,0.02
2022-09-23T06:57:11.062Z,0.03
2022-09-23T06:58:11.066Z,0.04
2022-09-23T06:59:11.073Z,0.05
2022-09-23T07:00:11.062Z,0.05
2022-09-23T07:01:12.119Z,0.06
2022-09-23T07:02:13.248Z,0.05
2022-09-23T07:03:11.065Z,0.05
2022-09-23T07:04:11.073Z,0.04
2022-09-23T07:05:11.064Z,0.05
2022-09-23T07:06:11.068Z,0.05
2022-09-23T07:07:11.073Z,0.06
2022-09-23T07:08:11.066Z,0.06
2022-09-23T07:09:11.078Z,0.06
2022-09-23T07:10:11.068Z,0.07
2022-09-23T07:11:11.067Z,0.08
2022-09-23T07:12:11.065Z,0.08
2022-09-23T07:13:15.525Z,0.08
2022-09-23T07:14:13.287Z,0.06
2022-09-23T07:15:11.066Z,0.07
2022-09-23T07:16:11.212Z,0.07
2022-09-23T07:17:11.069Z,0.06
2022-09-23T07:18:11.066Z,0.07
2022-09-23T07:19:11.065Z,0.11
2022-09-23T07:20:11.066Z,0.13
2022-09-23T07:21:14.066Z,0.12
2022-09-23T07:22:11.060Z,0.11
2022-09-23T07:23:11.055Z,0.14
2022-09-23T07:24:11.059Z,0.15
2022-09-23T07:25:11.063Z,0.16
2022-09-23T07:26:11.061Z,0.12
2022-09-23T07:27:11.059Z,0.18
2022-09-23T07:28:11.063Z,0.18
2022-09-23T07:29:14.058Z,0.19
2022-09-23T07:30:21.138Z,0.17
2022-09-23T07:31:13.562Z,0.17
2022-09-23T07:32:13.662Z,0.18
2022-09-23T07:33:24.795Z,0.17
2022-09-23T07:34:13.074Z,0.18
2022-09-23T07:35:11.069Z,0.18
2022-09-23T07:36:11.062Z,0.19
2022-09-23T07:37:11.056Z,0.18
2022-09-23T07:38:11.063Z,0.19
2022-09-23T07:39:11.072Z,0.18
2022-09-23T07:40:11.112Z,0.19
2022-09-23T07:41:11.066Z,0.19
2022-09-23T07:42:11.062Z,0.19
2022-09-23T07:43:11.059Z,0.19
2022-09-23T07:44:11.064Z,0.20
2022-09-23T07:45:11.068Z,0.19
2022-09-23T07:46:15.130Z,0.20
2022-09-23T07:47:11.061Z,0.20
2022-09-23T07:48:11.061Z,0.20
2022-09-23T07:49:11.065Z,0.21
2022-09-23T07:50:11.059Z,0.21
2022-09-23T07:51:18.066Z,0.21
2022-09-23T07:52:11.070Z,0.20
2022-09-23T07:53:12.062Z,0.22
2022-09-23T07:54:13.061Z,0.23
2022-09-23T07:55:11.065Z,0.24
2022-09-23T07:56:11.063Z,0.24
2022-09-23T07:57:11.060Z,0.23
2022-09-23T07:58:11.067Z,0.23
2022-09-23T07:59:14.071Z,0.24
2022-09-23T08:00:11.065Z,0.24
2022-09-23T08:01:11.151Z,0.25
2022-09-23T08:02:11.066Z,0.23
2022-09-23T08:03:11.135Z,0.26
2022-09-23T08:04:16.067Z,0.27
2022-09-23T08:05:11.071Z,0.27
2022-09-23T08:06:13.066Z,0.27
2022-09-23T08:07:12.061Z,0.29
2022-09-23T08:08:11.072Z,0.29
2022-09-23T08:09:11.079Z,0.29
2022-09-23T08:10:11.065Z,0.29
2022-09-23T08:11:12.064Z,0.30
2022-09-23T08:12:16.064Z,0.31
2022-09-23T08:13:11.069Z,0.30
2022-09-23T08:14:12.060Z,0.31
2022-09-23T08:15:11.075Z,0.32
2022-09-23T08:16:11.125Z,0.32
2022-09-23T08:17:11.075Z,0.32
2022-09-23T08:18:11.069Z,0.32
2022-09-23T08:19:11.077Z,0.32
2022-09-23T08:20:11.065Z,0.32
2022-09-23T08:21:11.055Z,0.32
2022-09-23T08:22:11.063Z,0.33
2022-09-23T08:23:11.054Z,0.33
2022-09-23T08:24:13.056Z,0.34
2022-09-23T08:25:11.072Z,0.34
2022-09-23T08:26:18.415Z,0.35
2022-09-23T08:27:13.091Z,0.35
2022-09-23T08:28:11.056Z,0.35
2022-09-23T08:29:16.056Z,0.35
2022-09-23T08:30:11.054Z,0.36
2022-09-23T08:31:11.143Z,0.36
2022-09-23T08:32:11.064Z,0.35
2022-09-23T08:33:11.054Z,0.36
2022-09-23T08:34:11.058Z,0.36
2022-09-23T08:35:11.065Z,0.38
2022-09-23T08:36:11.062Z,0.38
2022-09-23T08:37:13.059Z,0.37
2022-09-23T08:38:11.059Z,0.38
2022-09-23T08:39:12.058Z,0.38
2022-09-23T08:40:11.112Z,0.38
2022-09-23T08:41:21.066Z,0.39
2022-09-23T08:42:21.067Z,0.39
2022-09-23T08:43:17.059Z,0.39
2022-09-23T08:44:21.081Z,0.39
2022-09-23T08:45:15.055Z,0.39
2022-09-23T08:46:11.108Z,0.40
2022-09-23T08:47:21.094Z,0.40
2022-09-23T08:48:14.103Z,0.40
2022-09-23T08:49:13.058Z,0.40
2022-09-23T08:50:18.062Z,0.41
2022-09-23T08:51:20.084Z,0.41
2022-09-23T08:52:19.060Z,0.41
2022-09-23T08:53:21.081Z,0.41
2022-09-23T08:54:11.056Z,0.41
2022-09-23T08:55:15.066Z,0.43
2022-09-23T08:56:15.061Z,0.43
2022-09-23T08:57:19.059Z,0.42
2022-09-23T08:58:25.372Z,0.38
2022-09-23T08:59:22.080Z,0.42
2022-09-23T09:00:18.063Z,0.43
2022-09-23T09:01:18.098Z,0.41
2022-09-23T09:02:20.171Z,0.43
2022-09-23T09:03:19.060Z,0.43
2022-09-23T09:04:19.062Z,0.43
2022-09-23T09:05:12.060Z,0.43
2022-09-23T09:06:16.067Z,0.43
2022-09-23T09:07:35.695Z,0.43
2022-09-23T09:08:14.077Z,0.42
2022-09-23T09:09:23.093Z,0.43
2022-09-23T09:10:19.063Z,0.43
2022-09-23T09:11:12.061Z,0.43
2022-09-23T09:12:18.066Z,0.44
2022-09-23T09:13:21.063Z,0.44
2022-09-23T09:14:22.070Z,0.44
2022-09-23T09:15:21.068Z,0.44
2022-09-23T09:16:31.676Z,0.44
2022-09-23T09:17:24.382Z,0.44
2022-09-23T09:18:20.068Z,0.44
2022-09-23T09:19:18.066Z,0.44
2022-09-23T09:20:22.064Z,0.44
2022-09-23T09:21:15.055Z,0.44
2022-09-23T09:22:19.053Z,0.45
2022-09-23T09:23:21.055Z,0.45
2022-09-23T09:24:18.062Z,0.45
2022-09-23T09:25:21.056Z,0.45
2022-09-23T09:26:15.055Z,0.45
2022-09-23T09:27:12.054Z,0.45
2022-09-23T09:28:19.064Z,0.45
2022-09-23T09:29:34.736Z,0.45
2022-09-23T09:30:15.101Z,0.45
2022-09-23T09:31:19.106Z,0.45
2022-09-23T09:32:20.059Z,0.45
2022-09-23T09:33:15.057Z,0.45
2022-09-23T09:34:19.058Z,0.45
2022-09-23T09:35:22.057Z,0.45
2022-09-23T09:36:20.054Z,0.46
2022-09-23T09:37:23.058Z,0.46
2022-09-23T09:38:11.061Z,0.46
2022-09-23T09:39:14.068Z,0.46
2022-09-23T09:40:13.123Z,0.46
2022-09-23T09:41:15.054Z,0.45
2022-09-23T09:42:22.067Z,0.46
2022-09-23T09:43:11.066Z,0.46
2022-09-23T09:44:19.057Z,0.46
2022-09-23T09:45:21.056Z,0.45
2022-09-23T09:46:20.137Z,0.46
2022-09-23T09:47:19.065Z,0.46
2022-09-23T09:48:17.060Z,0.46
2022-09-23T09:49:17.057Z,0.46
2022-09-23T09:50:12.059Z,0.46
2022-09-23T09:51:21.062Z,0.46
2022-09-23T09:52:19.067Z,0.46
2022-09-23T09:53:16.006Z,0.46
2022-09-23T09:54:16.006Z,0.46
2022-09-23T09:55:19.008Z,0.46
2022-09-23T09:56:12.004Z,0.45
2022-09-23T09:57:19.005Z,0.46
2022-09-23T09:58:14.003Z,0.46
2022-09-23T09:59:11.032Z,0.46
2022-09-23T10:00:19.032Z,0.46
2022-09-23T10:01:15.052Z,0.46
2022-09-23T10:02:19.014Z,0.46
2022-09-23T10:03:20.004Z,0.14
2022-09-23T10:04:21.066Z,0.10
2022-09-23T10:05:19.014Z,0.47
2022-09-23T10:06:22.012Z,0.46
2022-09-23T10:07:15.004Z,0.46
2022-09-23T10:08:18.999Z,0.46
2022-09-23T10:09:17.003Z,0.46
2022-09-23T10:10:31.984Z,0.47
2022-09-23T10:11:18.019Z,0.47
2022-09-23T10:12:18.001Z,0.09
2022-09-23T10:13:15.006Z,0.46
2022-09-23T10:14:17.003Z,0.46
2022-09-23T10:15:19.006Z,0.46
2022-09-23T10:16:11.003Z,0.37
2022-09-23T10:17:19.058Z,0.45
2022-09-23T10:18:19.009Z,0.46
2022-09-23T10:19:22.004Z,0.45
2022-09-23T10:20:14.006Z,0.45
2022-09-23T10:21:10.996Z,0.45
2022-09-23T10:22:17.999Z,0.45
2022-09-23T10:23:14.999Z,0.45
2022-09-23T10:24:14.994Z,0.46
2022-09-23T10:25:19.997Z,0.46
2022-09-23T10:26:10.996Z,0.47
2022-09-23T10:27:11.002Z,0.32
2022-09-23T10:28:18.993Z,0.46
2022-09-23T10:29:22.008Z,0.46
2022-09-23T10:30:19.002Z,0.11
2022-09-23T10:31:19.026Z,0.11
2022-09-23T10:32:19.001Z,0.46
2022-09-23T10:33:18.999Z,0.47
2022-09-23T10:34:19.004Z,0.44
2022-09-23T10:35:15.001Z,0.42
2022-09-23T10:36:14.001Z,0.45
2022-09-23T10:37:19.000Z,0.46
2022-09-23T10:38:11.004Z,0.46
2022-09-23T10:39:15.010Z,0.46
2022-09-23T10:40:19.033Z,0.46
2022-09-23T10:41:22.012Z,0.10
2022-09-23T10:42:23.001Z,0.08
2022-09-23T10:43:23.007Z,0.44
2022-09-23T10:44:26.008Z,0.43
2022-09-23T10:45:22.019Z,0.43
2022-09-23T10:46:19.051Z,0.44
2022-09-23T10:47:19.009Z,0.43
2022-09-23T10:48:22.014Z,0.44
2022-09-23T10:49:21.005Z,0.44
2022-09-23T10:50:22.010Z,0.43
2022-09-23T10:51:22.689Z,0.44
2022-09-23T10:52:21.057Z,0.43
2022-09-23T10:53:17.020Z,0.43
2022-09-23T10:54:19.013Z,0.43
2022-09-23T10:55:22.013Z,0.43
2022-09-23T10:56:18.032Z,0.43
2022-09-23T10:57:23.016Z,0.43
2022-09-23T10:58:19.015Z,0.43
2022-09-23T10:59:19.016Z,0.43
2022-09-23T11:00:22.018Z,0.42
2022-09-23T11:01:22.052Z,0.42
2022-09-23T11:02:19.027Z,0.42
2022-09-23T11:03:21.020Z,0.42
2022-09-23T11:04:19.129Z,0.42
2022-09-23T11:05:22.022Z,0.41
2022-09-23T11:06:19.019Z,0.41
2022-09-23T11:07:19.028Z,0.28
2022-09-23T11:08:19.020Z,0.41
2022-09-23T11:09:19.018Z,0.41
2022-09-23T11:10:35.375Z,0.41
2022-09-23T11:11:23.049Z,0.41
2022-09-23T11:12:19.031Z,0.40
2022-09-23T11:13:19.023Z,0.41
2022-09-23T11:14:19.022Z,0.41
2022-09-23T11:15:22.027Z,0.41
2022-09-23T11:16:22.073Z,0.41
2022-09-23T11:17:19.034Z,0.39
2022-09-23T11:18:22.028Z,0.33
2022-09-23T11:19:19.030Z,0.14
2022-09-23T11:20:19.026Z,0.42
2022-09-23T11:21:19.018Z,0.41
2022-09-23T11:22:19.025Z,0.36
2022-09-23T11:23:19.020Z,0.23
2022-09-23T11:24:19.019Z,0.37
2022-09-23T11:25:21.023Z,0.42
2022-09-23T11:26:22.019Z,0.17
2022-09-23T11:27:19.029Z,0.16
2022-09-23T11:28:19.023Z,0.17
2022-09-23T11:29:19.022Z,0.39
2022-09-23T11:30:16.026Z,0.38
2022-09-23T11:31:19.092Z,0.38
2022-09-23T11:32:19.035Z,0.28
2022-09-23T11:33:22.025Z,0.32
2022-09-23T11:34:19.023Z,0.27
2022-09-23T11:35:22.026Z,0.39
2022-09-23T11:36:17.032Z,0.39
2022-09-23T11:37:14.031Z,0.20
2022-09-23T11:38:14.036Z,0.40
2022-09-23T11:39:17.027Z,0.41
2022-09-23T11:40:16.140Z,0.43
2022-09-23T11:41:19.037Z,0.44
2022-09-23T11:42:21.030Z,0.40
2022-09-23T11:43:19.027Z,0.28
2022-09-23T11:44:19.048Z,0.22
2022-09-23T11:45:19.041Z,0.41
2022-09-23T11:46:19.068Z,0.29
2022-09-23T11:47:21.030Z,0.25
2022-09-23T11:48:21.029Z,0.25
2022-09-23T11:49:20.033Z,0.39
2022-09-23T11:50:22.031Z,0.38
2022-09-23T11:51:16.039Z,0.38
2022-09-23T11:52:16.034Z,0.39
2022-09-23T11:53:19.030Z,0.22
2022-09-23T11:54:22.039Z,0.24
2022-09-23T11:55:22.150Z,0.31
2022-09-23T11:56:31.950Z,0.21
2022-09-23T11:57:23.149Z,0.38
2022-09-23T11:58:24.812Z,0.36
2022-09-23T11:59:31.542Z,0.27
2022-09-23T12:00:21.032Z,0.27
2022-09-23T12:01:16.112Z,0.33
2022-09-23T12:02:25.719Z,0.32
2022-09-23T12:03:30.732Z,0.14
2022-09-23T12:04:21.576Z,0.30
2022-09-23T12:05:16.182Z,0.30
2022-09-23T12:06:19.038Z,0.29
2022-09-23T12:07:19.041Z,0.28
2022-09-23T12:08:19.045Z,0.30
2022-09-23T12:09:30.980Z,0.31
2022-09-23T12:10:13.068Z,0.30
2022-09-23T12:11:19.039Z,0.30
2022-09-23T12:12:19.044Z,0.29
2022-09-23T12:13:20.041Z,0.21
2022-09-23T12:14:19.041Z,0.10
2022-09-23T12:15:19.038Z,0.12
2022-09-23T12:16:19.127Z,0.16
2022-09-23T12:17:19.049Z,0.29
2022-09-23T12:18:22.943Z,0.29
2022-09-23T12:19:22.043Z,0.30
2022-09-23T12:20:19.040Z,0.31
2022-09-23T12:21:38.696Z,0.18
2022-09-23T12:22:24.055Z,0.33
2022-09-23T12:23:22.040Z,0.34
2022-09-23T12:24:19.350Z,0.35
2022-09-23T12:25:19.030Z,0.33
2022-09-23T12:26:17.031Z,0.32
2022-09-23T12:27:17.035Z,0.16
2022-09-23T12:28:16.035Z,0.15
2022-09-23T12:29:13.035Z,0.27
2022-09-23T12:30:19.101Z,0.27
2022-09-23T12:31:13.092Z,0.20
2022-09-23T12:32:17.037Z,0.11
2022-09-23T12:33:19.033Z,0.24
2022-09-23T12:34:19.037Z,0.27
2022-09-23T12:35:19.038Z,0.28
2022-09-23T12:36:11.043Z,0.29
2022-09-23T12:37:11.037Z,0.29
2022-09-23T12:38:19.035Z,0.30
2022-09-23T12:39:16.037Z,0.30
2022-09-23T12:40:15.106Z,0.30
2022-09-23T12:41:23.034Z,0.31
2022-09-23T12:42:20.035Z,0.30
2022-09-23T12:43:18.041Z,0.32
2022-09-23T12:44:22.039Z,0.33
2022-09-23T12:45:19.049Z,0.33
2022-09-23T12:46:17.084Z,0.32
2022-09-23T12:47:19.038Z,0.29
2022-09-23T12:48:22.039Z,0.29
2022-09-23T12:49:19.042Z,0.25
2022-09-23T12:50:22.304Z,0.26
2022-09-23T12:51:16.057Z,0.19
2022-09-23T12:52:22.037Z,0.15
2022-09-23T12:53:19.042Z,0.24
2022-09-23T12:54:19.047Z,0.23
2022-09-23T12:55:20.040Z,0.23
2022-09-23T12:56:19.039Z,0.17
2022-09-23T12:57:22.037Z,0.22
2022-09-23T12:58:19.041Z,0.19
2022-09-23T12:59:22.048Z,0.21
2022-09-23T13:00:19.057Z,0.22
2022-09-23T13:01:18.156Z,0.23
2022-09-23T13:02:19.165Z,0.23
2022-09-23T13:03:15.044Z,0.22
2022-09-23T13:04:23.056Z,0.12
2022-09-23T13:05:21.052Z,0.14
2022-09-23T13:06:15.045Z,0.10
2022-09-23T13:07:11.044Z,0.10
2022-09-23T13:08:19.046Z,0.10
2022-09-23T13:09:16.052Z,0.09
2022-09-23T13:10:19.044Z,0.10
2022-09-23T13:11:19.092Z,0.20
2022-09-23T13:12:24.046Z,0.22
2022-09-23T13:13:19.046Z,0.24
2022-09-23T13:14:12.047Z,0.27
2022-09-23T13:15:22.047Z,0.30
2022-09-23T13:16:19.090Z,0.33
2022-09-23T13:17:19.049Z,0.31
2022-09-23T13:18:19.049Z,0.28